Time;durP1;ratioP1;P1;durP2;ratioP2;P2;SDS_P1;SDS_P2;PMS_P1;PMS_P2;Temp;Humidity;BMP_temperature;BMP_pressure;BME280_temperature;BME280_humidity;BME280_pressure;Samples;Min_cycle;Max_cycle;Signal;HPM_P1;HPM_P2
2021/03/13 00:00:54;;;;;;;14.00;2.42;;;7.10;99.90;;;;;;5074433;28;20468;-83
2021/03/13 00:03:20;;;;;;;13.00;2.85;;;7.10;99.90;;;;;;5074252;28;20021;-84
2021/03/13 00:05:46;;;;;;;10.00;2.10;;;7.00;99.90;;;;;;5089178;28;20039;-82
2021/03/13 00:08:13;;;;;;;11.95;2.13;;;7.00;99.90;;;;;;5072934;28;20032;-82
2021/03/13 00:10:40;;;;;;;14.75;2.78;;;6.90;99.90;;;;;;5074031;28;20376;-84
2021/03/13 00:13:07;;;;;;;13.30;2.67;;;6.90;99.90;;;;;;5056373;28;20029;-83
2021/03/13 00:15:33;;;;;;;15.95;2.03;;;6.80;99.90;;;;;;5084073;28;20107;-83
2021/03/13 00:17:59;;;;;;;13.23;2.13;;;6.90;99.90;;;;;;5075378;28;20031;-83
2021/03/13 00:20:27;;;;;;;9.20;2.30;;;6.90;99.90;;;;;;5075898;28;20038;-84
2021/03/13 00:22:53;;;;;;;13.43;2.60;;;6.90;99.90;;;;;;5094319;28;20077;-83
2021/03/13 00:25:21;;;;;;;13.32;2.17;;;6.90;99.90;;;;;;5075750;28;20070;-83
2021/03/13 00:27:46;;;;;;;16.02;2.70;;;6.90;99.90;;;;;;5076018;28;20039;-84
2021/03/13 00:30:23;;;;;;;13.55;1.95;;;6.90;99.90;;;;;;5093958;28;20028;-84
2021/03/13 00:32:50;;;;;;;12.20;2.10;;;6.90;99.90;;;;;;5109734;28;20041;-83
2021/03/13 00:35:17;;;;;;;12.95;1.90;;;6.90;99.90;;;;;;5093988;28;20024;-84
2021/03/13 00:37:42;;;;;;;10.85;2.10;;;6.90;99.90;;;;;;5075709;28;20127;-83
2021/03/13 00:40:15;;;;;;;12.23;2.10;;;6.90;99.90;;;;;;5109483;28;20055;-83
2021/03/13 00:42:42;;;;;;;10.00;2.15;;;6.90;99.90;;;;;;5075669;28;20119;-83
2021/03/13 00:45:09;;;;;;;11.57;2.22;;;6.90;99.90;;;;;;5075618;28;20031;-83
2021/03/13 00:47:35;;;;;;;14.52;2.00;;;6.90;99.90;;;;;;5075427;28;20632;-83
2021/03/13 00:50:01;;;;;;;10.93;2.63;;;6.90;99.90;;;;;;5075533;28;20491;-83
2021/03/13 00:52:27;;;;;;;16.45;2.47;;;7.00;99.90;;;;;;5075706;28;20031;-83
2021/03/13 00:54:52;;;;;;;11.32;2.55;;;7.00;99.90;;;;;;5093543;28;20020;-82
2021/03/13 00:57:18;;;;;;;11.48;2.35;;;7.00;99.90;;;;;;5093628;28;20077;-84
2021/03/13 00:59:43;;;;;;;9.73;2.10;;;7.00;99.90;;;;;;5093398;28;20207;-84
2021/03/13 01:02:09;;;;;;;13.05;2.50;;;7.00;99.90;;;;;;5093518;28;20490;-83
2021/03/13 01:04:35;;;;;;;15.65;3.63;;;7.00;99.90;;;;;;5075312;28;20032;-84
2021/03/13 01:07:00;;;;;;;11.30;1.98;;;7.00;99.90;;;;;;5108957;28;20047;-82
2021/03/13 01:09:26;;;;;;;15.25;2.65;;;6.90;99.90;;;;;;5075213;28;20107;-83
2021/03/13 01:11:52;;;;;;;10.07;2.65;;;6.90;99.90;;;;;;5074963;28;20028;-83
2021/03/13 01:14:18;;;;;;;20.52;3.22;;;6.80;99.90;;;;;;5075349;28;20028;-83
2021/03/13 01:16:43;;;;;;;11.48;2.58;;;6.70;99.90;;;;;;5074903;28;20055;-83
2021/03/13 01:19:10;;;;;;;13.50;3.38;;;6.70;99.90;;;;;;5093302;28;20058;-84
2021/03/13 01:21:35;;;;;;;15.02;3.20;;;6.70;99.90;;;;;;5093009;28;20038;-82
2021/03/13 01:24:01;;;;;;;9.68;2.42;;;6.60;99.90;;;;;;5092083;28;20107;-82
2021/03/13 01:26:26;;;;;;;18.58;3.45;;;6.60;99.90;;;;;;5074966;28;20481;-83
2021/03/13 01:28:52;;;;;;;11.60;3.03;;;6.50;99.90;;;;;;5093129;28;20027;-83
2021/03/13 01:31:17;;;;;;;13.10;2.90;;;6.50;99.90;;;;;;5074756;28;20035;-83
2021/03/13 01:33:43;;;;;;;21.15;3.75;;;6.50;99.90;;;;;;5091956;28;20035;-82
2021/03/13 01:36:09;;;;;;;13.65;3.00;;;6.40;99.90;;;;;;5091627;28;20028;-81
2021/03/13 01:38:34;;;;;;;15.63;3.13;;;6.40;99.90;;;;;;5074758;28;20020;-81
2021/03/13 01:41:00;;;;;;;11.60;3.17;;;6.30;99.90;;;;;;5092830;28;20095;-80
2021/03/13 01:43:26;;;;;;;11.82;3.45;;;6.30;99.90;;;;;;5093020;28;20145;-80
2021/03/13 01:45:51;;;;;;;13.60;3.28;;;6.30;99.90;;;;;;5074528;28;20365;-81
2021/03/13 01:48:18;;;;;;;10.63;3.28;;;6.20;99.90;;;;;;5074925;28;20020;-81
2021/03/13 01:50:45;;;;;;;11.13;3.13;;;6.10;99.90;;;;;;5093282;28;20031;-81
2021/03/13 01:53:11;;;;;;;9.43;2.80;;;6.10;99.90;;;;;;5093343;28;20059;-81
2021/03/13 01:55:36;;;;;;;13.23;3.33;;;6.10;99.90;;;;;;5092995;28;20060;-80
2021/03/13 01:58:02;;;;;;;11.35;3.25;;;6.10;99.90;;;;;;5074716;28;20036;-81
2021/03/13 02:00:28;;;;;;;10.13;3.13;;;6.10;99.90;;;;;;5091513;28;20028;-81
2021/03/13 02:02:53;;;;;;;11.07;3.45;;;6.10;99.90;;;;;;5092861;28;20536;-80
2021/03/13 02:05:25;;;;;;;12.10;3.63;;;6.00;99.90;;;;;;5092323;28;20067;-81
2021/03/13 02:08:29;;;;;;;8.38;3.60;;;6.10;99.90;;;;;;5074651;28;20113;-80
2021/03/13 02:11:30;;;;;;;13.68;3.88;;;6.10;99.90;;;;;;5071337;28;20035;-81
2021/03/13 02:14:23;;;;;;;13.82;3.78;;;6.10;99.90;;;;;;5092716;28;20529;-80
2021/03/13 02:16:56;;;;;;;11.25;2.97;;;6.00;99.90;;;;;;5054152;28;20025;-80
2021/03/13 02:19:55;;;;;;;16.17;4.47;;;6.00;99.90;;;;;;5054384;28;20028;-80
2021/03/13 02:22:23;;;;;;;14.95;5.05;;;6.10;99.90;;;;;;5071016;28;20027;-80
2021/03/13 02:25:00;;;;;;;11.63;5.22;;;6.00;99.90;;;;;;5087978;28;20056;-81
2021/03/13 02:27:44;;;;;;;9.05;3.90;;;6.00;99.90;;;;;;5054116;28;20020;-80
2021/03/13 02:30:21;;;;;;;15.30;5.13;;;6.00;99.90;;;;;;5072355;28;20024;-81
2021/03/13 02:32:57;;;;;;;8.00;3.97;;;6.00;99.90;;;;;;5054013;28;20064;-81
2021/03/13 02:35:31;;;;;;;9.38;4.40;;;6.00;99.90;;;;;;5054430;28;20029;-81
2021/03/13 02:38:03;;;;;;;9.52;4.43;;;6.00;99.90;;;;;;5087638;28;20082;-80
2021/03/13 02:40:30;;;;;;;11.88;4.30;;;6.00;99.90;;;;;;5087960;28;20151;-81
2021/03/13 02:42:59;;;;;;;14.38;4.03;;;6.00;99.90;;;;;;5074739;28;20092;-81
2021/03/13 02:45:28;;;;;;;8.70;3.80;;;6.00;99.90;;;;;;5091586;28;20031;-81
2021/03/13 02:47:54;;;;;;;9.15;5.13;;;5.90;99.90;;;;;;5075896;28;20026;-81
2021/03/13 02:50:20;;;;;;;11.30;4.13;;;6.00;99.90;;;;;;5075697;28;20108;-81
2021/03/13 02:52:49;;;;;;;13.00;5.30;;;6.00;99.90;;;;;;5075743;28;20060;-80
2021/03/13 02:55:16;;;;;;;10.07;4.25;;;6.00;99.90;;;;;;5057892;28;20025;-81
2021/03/13 02:57:45;;;;;;;13.13;6.03;;;6.00;99.90;;;;;;5057468;28;20036;-81
2021/03/13 03:00:14;;;;;;;13.82;6.32;;;6.00;99.90;;;;;;5091278;28;20021;-81
2021/03/13 03:02:41;;;;;;;14.63;6.25;;;6.00;99.90;;;;;;5057545;28;20020;-80
2021/03/13 03:05:08;;;;;;;18.52;6.72;;;6.00;99.90;;;;;;5057915;28;20055;-81
2021/03/13 03:07:34;;;;;;;16.95;7.32;;;6.00;99.90;;;;;;5075369;28;20106;-81
2021/03/13 03:10:00;;;;;;;13.02;7.10;;;6.00;99.90;;;;;;5075450;28;20476;-82
2021/03/13 03:12:27;;;;;;;14.20;7.68;;;6.00;99.90;;;;;;5057217;28;20033;-82
2021/03/13 03:14:56;;;;;;;13.70;7.40;;;6.10;99.90;;;;;;5061702;28;20035;-82
2021/03/13 03:17:23;;;;;;;11.10;6.38;;;6.10;99.90;;;;;;5111160;28;20039;-81
2021/03/13 03:19:52;;;;;;;14.95;6.78;;;6.10;99.90;;;;;;5077279;28;20024;-81
2021/03/13 03:22:18;;;;;;;14.55;6.78;;;6.10;99.90;;;;;;5077292;28;20020;-81
2021/03/13 03:24:44;;;;;;;12.10;6.03;;;6.10;99.90;;;;;;5077281;28;20024;-81
2021/03/13 03:27:09;;;;;;;14.55;6.72;;;6.10;99.90;;;;;;5095335;28;20032;-81
2021/03/13 03:29:35;;;;;;;14.35;7.30;;;6.10;99.90;;;;;;5076662;28;20041;-81
2021/03/13 03:32:00;;;;;;;13.23;6.38;;;6.10;99.90;;;;;;5095042;28;20028;-81
2021/03/13 03:34:26;;;;;;;12.70;5.88;;;6.10;99.90;;;;;;5077189;28;20024;-81
2021/03/13 03:36:52;;;;;;;14.00;5.75;;;6.10;99.90;;;;;;5076974;28;20032;-81
2021/03/13 03:39:18;;;;;;;10.88;6.28;;;6.10;99.90;;;;;;5077059;28;20023;-82
2021/03/13 03:41:48;;;;;;;12.27;6.10;;;6.10;99.90;;;;;;5094914;28;20395;-82
2021/03/13 03:44:26;;;;;;;14.48;5.43;;;6.20;99.90;;;;;;5076768;28;20032;-82
2021/03/13 03:46:59;;;;;;;13.90;5.97;;;6.20;99.90;;;;;;5093942;28;20016;-82
2021/03/13 03:49:26;;;;;;;12.45;6.00;;;6.20;99.90;;;;;;5110182;28;20488;-82
2021/03/13 03:51:54;;;;;;;14.45;5.80;;;6.20;99.90;;;;;;5109543;28;20471;-82
2021/03/13 03:54:20;;;;;;;15.23;6.63;;;6.20;99.90;;;;;;5075682;28;20046;-81
2021/03/13 03:56:47;;;;;;;14.15;5.10;;;6.20;99.90;;;;;;5094467;28;20099;-81
2021/03/13 03:59:16;;;;;;;16.35;5.90;;;6.20;99.90;;;;;;5076389;28;20025;-81
2021/03/13 04:01:48;;;;;;;11.95;5.10;;;6.20;99.90;;;;;;5110490;28;20020;-81
2021/03/13 04:04:18;;;;;;;22.08;6.75;;;6.20;99.90;;;;;;5076693;28;20028;-80
2021/03/13 04:06:45;;;;;;;17.25;6.47;;;6.20;99.90;;;;;;5076399;28;20562;-80
2021/03/13 04:09:11;;;;;;;12.98;6.30;;;6.30;99.90;;;;;;5094473;28;20051;-81
2021/03/13 04:11:38;;;;;;;15.02;5.50;;;6.30;99.90;;;;;;5076232;28;20052;-81
2021/03/13 04:14:05;;;;;;;14.82;5.70;;;6.30;99.90;;;;;;5094136;28;20527;-80
2021/03/13 04:16:31;;;;;;;18.45;5.72;;;6.30;99.90;;;;;;5075998;28;20028;-80
2021/03/13 04:18:59;;;;;;;11.80;5.18;;;6.30;99.90;;;;;;5092795;28;20119;-80
2021/03/13 04:21:26;;;;;;;17.00;6.28;;;6.30;99.90;;;;;;5076002;28;20024;-80
2021/03/13 04:23:51;;;;;;;14.07;5.53;;;6.30;99.90;;;;;;5076017;28;20128;-80
2021/03/13 04:26:18;;;;;;;11.32;4.85;;;6.30;99.90;;;;;;5094024;28;20514;-80
2021/03/13 04:28:45;;;;;;;14.63;5.80;;;6.30;99.90;;;;;;5076320;28;20070;-81
2021/03/13 04:31:12;;;;;;;14.40;6.63;;;6.40;99.90;;;;;;5092918;28;20040;-81
2021/03/13 04:33:39;;;;;;;12.68;6.07;;;6.40;99.90;;;;;;5076763;28;20030;-81
2021/03/13 04:36:06;;;;;;;18.23;5.90;;;6.40;99.90;;;;;;5076771;28;20025;-81
2021/03/13 04:38:33;;;;;;;13.07;5.82;;;6.40;99.90;;;;;;5076634;28;20496;-80
2021/03/13 04:40:59;;;;;;;9.73;5.15;;;6.40;99.90;;;;;;5075700;28;20111;-81
2021/03/13 04:43:27;;;;;;;10.90;5.60;;;6.40;99.90;;;;;;5109540;28;20488;-81
2021/03/13 04:45:58;;;;;;;12.43;5.15;;;6.50;99.90;;;;;;5075401;28;20390;-82
2021/03/13 04:48:25;;;;;;;10.95;4.95;;;6.50;99.90;;;;;;5075536;28;20028;-82
2021/03/13 04:50:50;;;;;;;10.75;5.30;;;6.50;99.90;;;;;;5075658;28;20024;-82
2021/03/13 04:53:16;;;;;;;11.93;5.78;;;6.50;99.90;;;;;;5075398;28;20028;-82
2021/03/13 04:55:42;;;;;;;15.35;5.60;;;6.60;99.90;;;;;;5075393;28;20028;-82
2021/03/13 04:58:08;;;;;;;11.63;4.40;;;6.60;99.90;;;;;;5075167;28;20052;-82
2021/03/13 05:00:34;;;;;;;11.60;4.45;;;6.60;99.90;;;;;;5075076;28;20111;-82
2021/03/13 05:02:59;;;;;;;9.75;4.88;;;6.70;99.90;;;;;;5075161;28;20154;-82
2021/03/13 05:05:25;;;;;;;14.27;5.65;;;6.70;99.90;;;;;;5092901;28;20382;-80
2021/03/13 05:07:50;;;;;;;13.75;4.85;;;6.60;99.90;;;;;;5091774;28;20031;-80
2021/03/13 05:10:16;;;;;;;13.23;4.20;;;6.70;99.90;;;;;;5075318;28;20023;-80
2021/03/13 05:12:43;;;;;;;12.23;5.70;;;6.60;99.90;;;;;;5075160;28;20020;-80
2021/03/13 05:15:09;;;;;;;12.93;4.90;;;6.60;99.90;;;;;;5074916;28;20016;-80
2021/03/13 05:17:35;;;;;;;15.75;5.05;;;6.60;99.90;;;;;;5074830;28;20032;-80
2021/03/13 05:20:01;;;;;;;13.95;4.15;;;6.60;99.90;;;;;;5075022;28;20471;-80
2021/03/13 05:22:27;;;;;;;13.82;4.30;;;6.60;99.90;;;;;;5074953;28;20039;-81
2021/03/13 05:24:52;;;;;;;12.65;3.63;;;6.70;99.90;;;;;;5092980;28;20486;-81
2021/03/13 05:27:18;;;;;;;10.93;3.42;;;6.60;99.90;;;;;;5093248;28;20032;-81
2021/03/13 05:29:43;;;;;;;11.15;2.95;;;6.70;99.90;;;;;;5074937;28;20024;-80
2021/03/13 05:32:09;;;;;;;13.25;3.42;;;6.70;99.90;;;;;;5074925;28;20452;-80
2021/03/13 05:34:35;;;;;;;12.40;3.95;;;6.70;99.90;;;;;;5074756;28;20055;-80
2021/03/13 05:37:00;;;;;;;11.70;3.70;;;6.70;99.90;;;;;;5074840;28;20553;-81
2021/03/13 05:39:26;;;;;;;10.57;3.50;;;6.70;99.90;;;;;;5092893;28;20095;-81
2021/03/13 05:41:52;;;;;;;10.00;3.30;;;6.70;99.90;;;;;;5091781;28;20027;-80
2021/03/13 05:44:19;;;;;;;7.47;3.10;;;6.70;99.90;;;;;;5074771;28;20472;-81
2021/03/13 05:46:45;;;;;;;16.70;3.33;;;6.80;99.90;;;;;;5074841;28;20051;-81
2021/03/13 05:49:12;;;;;;;10.40;2.92;;;6.80;99.90;;;;;;5074596;28;20016;-82
2021/03/13 05:51:42;;;;;;;12.48;3.60;;;6.80;99.90;;;;;;5074413;28;20232;-81
2021/03/13 05:54:07;;;;;;;;;;;6.80;99.90;;;;;;5072990;28;20020;-81
2021/03/13 05:56:34;;;;;;;12.40;2.78;;;6.80;99.90;;;;;;5092185;28;19904;-82
2021/03/13 05:59:00;;;;;;;10.95;2.72;;;6.80;99.90;;;;;;5092206;28;20027;-81
2021/03/13 06:01:27;;;;;;;9.60;3.25;;;6.80;99.90;;;;;;5074682;28;20107;-80
2021/03/13 06:03:53;;;;;;;14.15;3.28;;;6.90;99.90;;;;;;5074607;28;20044;-81
2021/03/13 06:06:21;;;;;;;8.73;2.72;;;6.90;99.90;;;;;;5074040;28;20517;-80
2021/03/13 06:08:47;;;;;;;14.13;3.30;;;6.90;99.90;;;;;;5074715;28;20028;-80
2021/03/13 06:11:12;;;;;;;10.82;2.88;;;6.90;99.90;;;;;;5074488;28;20039;-81
2021/03/13 06:13:38;;;;;;;8.07;2.58;;;6.90;99.90;;;;;;5091143;28;20032;-80
2021/03/13 06:16:04;;;;;;;11.73;3.17;;;6.90;99.90;;;;;;5074618;28;20051;-81
2021/03/13 06:18:47;;;;;;;9.50;2.85;;;6.90;99.90;;;;;;5096291;28;20047;-80
2021/03/13 06:21:36;;;;;;;12.07;2.72;;;6.90;99.90;;;;;;5068492;28;20029;-81
2021/03/13 06:24:03;;;;;;;4.60;1.10;;;6.90;99.90;;;;;;5058290;28;20434;-81
2021/03/13 06:27:01;;;;;;;7.30;1.70;;;6.80;99.90;;;;;;5091340;28;20107;-81
2021/03/13 06:29:28;;;;;;;6.78;1.75;;;6.80;99.90;;;;;;5076179;28;20048;-82
2021/03/13 06:32:11;;;;;;;5.40;1.27;;;6.70;99.90;;;;;;5091885;28;20024;-82
2021/03/13 06:34:37;;;;;;;3.13;0.82;;;6.70;99.90;;;;;;5058025;28;20020;-82
2021/03/13 06:37:28;;;;;;;4.80;0.80;;;6.60;99.90;;;;;;5091722;28;20040;-83
2021/03/13 06:39:55;;;;;;;1.98;0.70;;;6.50;99.90;;;;;;5058085;28;20487;-83
2021/03/13 06:42:21;;;;;;;3.90;0.70;;;6.50;99.90;;;;;;5058103;28;20120;-83
2021/03/13 06:45:13;;;;;;;5.97;0.75;;;6.50;99.90;;;;;;5075932;28;20100;-84
2021/03/13 06:47:41;;;;;;;3.10;0.68;;;6.50;99.90;;;;;;5090198;28;20036;-83
2021/03/13 06:50:23;;;;;;;3.72;0.40;;;6.60;99.90;;;;;;5060795;28;20021;-84
2021/03/13 06:52:51;;;;;;;1.33;0.38;;;6.60;99.90;;;;;;5077884;28;20113;-83
2021/03/13 06:55:23;;;;;;;3.28;0.40;;;6.60;99.90;;;;;;5083197;28;20111;-83
2021/03/13 06:57:49;;;;;;;1.85;0.70;;;6.60;99.90;;;;;;5114021;28;20475;-84
2021/03/13 07:00:30;;;;;;;6.25;0.88;;;6.70;99.90;;;;;;5087006;28;20107;-82
2021/03/13 07:03:06;;;;;;;10.13;0.70;;;6.80;99.90;;;;;;5087006;28;20488;-83
2021/03/13 07:05:43;;;;;;;5.90;1.00;;;6.70;99.90;;;;;;5108798;28;20387;-83
2021/03/13 07:08:31;;;;;;;4.22;0.80;;;6.80;99.90;;;;;;5086306;28;20027;-83
2021/03/13 07:11:03;;;;;;;5.32;1.00;;;6.70;99.90;;;;;;5085147;28;20543;-83
2021/03/13 07:13:40;;;;;;;6.28;1.25;;;6.80;99.90;;;;;;5103062;28;20020;-83
2021/03/13 07:16:25;;;;;;;7.47;0.93;;;6.80;99.90;;;;;;5087899;28;20023;-83
2021/03/13 07:18:53;;;;;;;6.80;0.85;;;6.80;99.90;;;;;;5087485;28;20121;-83
2021/03/13 07:21:20;;;;;;;4.70;1.10;;;6.80;99.90;;;;;;5105126;28;20024;-82
2021/03/13 07:24:03;;;;;;;5.32;1.20;;;6.80;99.90;;;;;;5102651;28;20103;-83
2021/03/13 07:26:41;;;;;;;6.20;1.90;;;6.80;99.90;;;;;;5105788;28;20019;-83
2021/03/13 07:29:10;;;;;;;13.40;2.35;;;6.80;99.90;;;;;;5087656;28;20085;-82
2021/03/13 07:31:41;;;;;;;16.23;2.35;;;6.80;99.90;;;;;;5111782;28;20020;-82
2021/03/13 07:34:29;;;;;;;13.10;2.08;;;6.80;99.90;;;;;;5103800;28;20058;-81
2021/03/13 07:36:57;;;;;;;12.75;1.70;;;6.80;99.90;;;;;;5083782;28;20089;-82
2021/03/13 07:39:24;;;;;;;9.13;1.73;;;6.90;99.90;;;;;;5086127;28;20019;-82
2021/03/13 07:42:08;;;;;;;17.30;2.38;;;7.00;99.90;;;;;;5087643;28;20015;-83
2021/03/13 07:44:35;;;;;;;16.92;2.00;;;7.00;99.90;;;;;;5101308;28;20026;-82
2021/03/13 07:47:02;;;;;;;13.48;1.77;;;7.00;99.90;;;;;;5085920;28;20028;-83
2021/03/13 07:49:30;;;;;;;19.98;2.20;;;7.00;99.90;;;;;;5105455;28;20053;-82
2021/03/13 07:52:02;;;;;;;18.27;1.83;;;7.00;99.90;;;;;;5104335;28;20018;-81
2021/03/13 07:54:31;;;;;;;16.38;1.75;;;7.10;99.90;;;;;;5085209;28;20072;-81
2021/03/13 07:56:59;;;;;;;16.55;2.25;;;7.00;99.90;;;;;;5112493;28;20023;-82
2021/03/13 07:59:45;;;;;;;16.13;2.08;;;7.10;99.90;;;;;;5110154;28;20028;-82
2021/03/13 08:02:32;;;;;;;13.68;2.08;;;7.10;99.90;;;;;;5112920;28;20023;-82
2021/03/13 08:05:03;;;;;;;12.48;1.75;;;7.20;99.90;;;;;;5100924;28;20043;-82
2021/03/13 08:07:49;;;;;;;15.70;2.58;;;7.30;99.90;;;;;;5103767;28;20070;-83
2021/03/13 08:10:44;;;;;;;15.88;2.30;;;7.30;99.90;;;;;;5104808;28;20050;-82
2021/03/13 08:13:11;;;;;;;11.90;1.75;;;7.40;99.90;;;;;;5100208;28;20016;-82
2021/03/13 08:15:40;;;;;;;12.85;2.05;;;7.40;99.90;;;;;;5076077;28;20119;-82
2021/03/13 08:18:09;;;;;;;16.42;1.80;;;7.50;99.90;;;;;;5096267;28;20028;-82
2021/03/13 08:20:35;;;;;;;13.25;1.95;;;7.50;99.90;;;;;;5104670;28;20478;-82
2021/03/13 08:23:19;;;;;;;14.73;2.22;;;7.50;99.90;;;;;;5086006;28;20420;-82
2021/03/13 08:25:52;;;;;;;16.13;2.88;;;7.50;99.90;;;;;;5079070;28;20024;-82
2021/03/13 08:28:49;;;;;;;13.52;1.70;;;7.50;99.90;;;;;;5079612;28;20059;-82
2021/03/13 08:31:36;;;;;;;12.90;2.17;;;7.50;99.90;;;;;;5099290;28;20517;-82
2021/03/13 08:34:05;;;;;;;21.35;2.67;;;7.50;99.90;;;;;;5099863;28;20025;-82
2021/03/13 08:36:39;;;;;;;17.00;3.13;;;7.60;99.90;;;;;;5101167;28;20020;-81
2021/03/13 08:39:16;;;;;;;17.73;2.17;;;7.60;99.90;;;;;;5072729;28;20031;-82
2021/03/13 08:41:44;;;;;;;18.23;2.60;;;7.60;99.90;;;;;;5087739;28;20024;-82
2021/03/13 08:44:26;;;;;;;12.95;2.40;;;7.70;99.50;;;;;;5085861;28;20066;-82
2021/03/13 08:46:59;;;;;;;16.58;2.92;;;7.70;99.80;;;;;;5099864;28;20021;-81
2021/03/13 08:49:25;;;;;;;18.35;2.60;;;7.60;98.80;;;;;;5084105;28;20027;-81
2021/03/13 08:52:16;;;;;;;18.35;3.25;;;7.70;97.60;;;;;;5097930;28;20043;-81
2021/03/13 08:54:47;;;;;;;23.73;2.53;;;7.70;98.70;;;;;;5078047;28;20028;-81
2021/03/13 08:57:17;;;;;;;17.10;2.28;;;7.70;98.50;;;;;;5101749;28;20479;-81
2021/03/13 08:59:44;;;;;;;15.68;2.92;;;7.70;98.10;;;;;;5069229;28;20039;-81
2021/03/13 09:02:12;;;;;;;16.08;3.17;;;7.70;98.40;;;;;;5065392;28;20507;-82
2021/03/13 09:04:41;;;;;;;18.00;4.30;;;7.70;98.20;;;;;;5104238;27;20028;-81
2021/03/13 09:07:08;;;;;;;17.70;3.60;;;7.70;99.20;;;;;;5066448;28;20043;-82
2021/03/13 09:09:36;;;;;;;18.30;3.85;;;7.80;98.00;;;;;;5082393;28;20017;-81
2021/03/13 09:12:09;;;;;;;14.98;2.50;;;7.80;97.30;;;;;;5061166;28;20388;-82
2021/03/13 09:14:40;;;;;;;15.68;2.70;;;7.90;96.80;;;;;;5074089;28;20024;-82
2021/03/13 09:17:14;;;;;;;17.35;3.40;;;7.90;97.60;;;;;;5056661;28;20021;-82
2021/03/13 09:19:41;;;;;;;19.88;3.20;;;8.00;97.50;;;;;;5063670;28;20031;-82
2021/03/13 09:22:15;;;;;;;17.98;2.75;;;8.00;97.30;;;;;;5075349;28;20027;-81
2021/03/13 09:24:41;;;;;;;26.02;2.85;;;8.00;97.00;;;;;;5058871;28;20464;-82
2021/03/13 09:27:07;;;;;;;15.50;2.50;;;7.90;96.60;;;;;;5077520;28;20013;-81
2021/03/13 09:29:38;;;;;;;16.45;2.20;;;8.00;97.10;;;;;;5055873;28;20024;-82
2021/03/13 09:32:14;;;;;;;11.77;2.80;;;7.90;97.40;;;;;;5054495;28;20111;-82
2021/03/13 09:34:42;;;;;;;13.55;2.30;;;8.00;97.50;;;;;;5063325;28;20039;-81
2021/03/13 09:37:17;;;;;;;16.58;2.65;;;7.90;97.10;;;;;;5054040;28;20020;-80
2021/03/13 09:39:59;;;;;;;14.60;3.25;;;7.90;97.30;;;;;;5058249;28;20021;-82
2021/03/13 09:42:26;;;;;;;17.30;2.88;;;7.80;97.70;;;;;;5090797;28;20484;-82
2021/03/13 09:44:53;;;;;;;13.15;2.70;;;7.90;97.90;;;;;;5058428;28;20020;-82
2021/03/13 09:47:39;;;;;;;12.48;2.63;;;7.90;97.80;;;;;;5077886;28;20012;-80
2021/03/13 09:50:09;;;;;;;16.10;3.75;;;8.20;97.70;;;;;;5067987;28;20119;-82
2021/03/13 09:52:40;;;;;;;14.05;2.63;;;8.20;98.10;;;;;;5075544;28;20395;-82
2021/03/13 09:55:09;;;;;;;15.70;3.00;;;8.30;98.50;;;;;;5072545;28;20056;-81
2021/03/13 09:57:36;;;;;;;15.45;2.67;;;9.20;97.60;;;;;;5076828;28;20452;-81
2021/03/13 10:00:24;;;;;;;21.00;2.95;;;9.40;96.20;;;;;;5075276;28;20436;-81
2021/03/13 10:02:52;;;;;;;14.73;2.50;;;9.60;94.60;;;;;;5059610;28;20082;-81
2021/03/13 10:05:22;;;;;;;15.13;2.80;;;9.00;96.00;;;;;;5075101;28;20027;-81
2021/03/13 10:07:50;;;;;;;22.30;3.40;;;8.40;98.20;;;;;;5094257;28;20044;-79
2021/03/13 10:10:16;;;;;;;21.15;4.63;;;7.80;99.90;;;;;;5093381;28;20123;-78
2021/03/13 10:12:46;;;;;;;14.95;2.35;;;6.90;99.90;;;;;;5081181;28;20024;-78
2021/03/13 10:15:25;;;;;;;;;;;6.10;99.90;;;;;;5086788;28;20047;-79
2021/03/13 10:17:56;;;;;;;19.52;3.63;;;5.60;99.90;;;;;;5080304;28;19918;-79
2021/03/13 10:20:25;;;;;;;19.88;4.32;;;5.50;99.90;;;;;;5076923;28;20048;-79
2021/03/13 10:22:51;;;;;;;25.80;5.10;;;5.70;99.90;;;;;;5077893;28;20468;-79
2021/03/13 10:25:17;;;;;;;21.85;4.63;;;6.80;99.90;;;;;;5076138;28;20067;-79
2021/03/13 10:27:43;;;;;;;26.80;4.18;;;7.70;99.90;;;;;;5085494;28;20016;-79
2021/03/13 10:30:11;;;;;;;21.52;3.70;;;8.60;99.90;;;;;;5057769;28;20020;-80
2021/03/13 10:32:38;;;;;;;24.02;4.25;;;9.00;99.90;;;;;;5076246;28;20543;-80
2021/03/13 10:35:16;;;;;;;27.08;4.90;;;9.30;99.90;;;;;;5056645;28;20115;-80
2021/03/13 10:37:53;;;;;;;24.35;3.33;;;9.50;99.60;;;;;;5066308;28;20027;-80
2021/03/13 10:40:30;;;;;;;23.02;4.60;;;9.70;96.90;;;;;;5084356;28;20039;-80
2021/03/13 10:43:10;;;;;;;27.40;6.28;;;10.00;95.50;;;;;;5077823;28;20021;-80
2021/03/13 10:45:36;;;;;;;21.20;3.08;;;9.60;93.70;;;;;;5071369;28;20123;-81
2021/03/13 10:48:06;;;;;;;22.40;3.78;;;9.40;95.90;;;;;;5080538;28;20042;-80
2021/03/13 10:50:35;;;;;;;17.42;4.22;;;9.40;95.10;;;;;;5056660;28;20513;-80
2021/03/13 10:53:30;;;;;;;18.25;3.25;;;9.50;94.70;;;;;;5078759;28;20016;-81
2021/03/13 10:55:58;;;;;;;18.35;3.45;;;9.60;94.20;;;;;;5079797;28;20430;-81
2021/03/13 10:58:32;;;;;;;17.77;3.28;;;9.90;93.80;;;;;;5084909;28;20024;-81
2021/03/13 11:00:59;;;;;;;19.90;3.20;;;10.40;91.20;;;;;;5079112;28;20376;-80
2021/03/13 11:03:26;;;;;;;16.33;3.08;;;10.50;90.40;;;;;;5075831;28;20051;-80
2021/03/13 11:05:52;;;;;;;17.33;3.22;;;10.90;87.80;;;;;;5079067;28;20032;-80
2021/03/13 11:08:25;;;;;;;20.25;3.17;;;10.60;86.40;;;;;;5075592;28;20090;-81
2021/03/13 11:10:52;;;;;;;19.45;3.22;;;9.90;90.30;;;;;;5077082;28;20016;-81
2021/03/13 11:13:18;;;;;;;15.90;3.47;;;9.50;89.30;;;;;;5060634;28;20036;-80
2021/03/13 11:15:47;;;;;;;16.77;2.58;;;9.70;90.40;;;;;;5077807;28;20391;-80
2021/03/13 11:18:14;;;;;;;15.98;2.75;;;9.70;88.70;;;;;;5056139;28;20098;-82
2021/03/13 11:20:40;;;;;;;10.45;2.03;;;9.60;90.10;;;;;;5060107;28;20045;-81
2021/03/13 11:23:06;;;;;;;20.35;2.63;;;9.40;87.00;;;;;;5083454;28;20027;-81
2021/03/13 11:25:32;;;;;;;17.00;3.75;;;9.10;90.00;;;;;;5065970;28;20023;-80
2021/03/13 11:27:57;;;;;;;10.95;1.73;;;8.70;92.50;;;;;;5076119;28;20024;-80
2021/03/13 11:30:24;;;;;;;12.27;2.17;;;7.50;96.60;;;;;;5092304;28;20099;-80
2021/03/13 11:32:49;;;;;;;11.75;1.67;;;6.80;99.90;;;;;;5068345;28;20066;-80
2021/03/13 11:35:18;;;;;;;12.00;1.63;;;6.60;99.90;;;;;;5087137;28;20066;-80
2021/03/13 11:37:45;;;;;;;14.10;1.45;;;6.50;99.90;;;;;;5066839;28;20056;-80
2021/03/13 11:40:11;;;;;;;12.15;1.30;;;6.30;99.90;;;;;;5091848;28;20068;-80
2021/03/13 11:42:37;;;;;;;5.70;1.50;;;6.20;99.90;;;;;;5075379;28;20048;-80
2021/03/13 11:45:05;;;;;;;7.28;1.48;;;6.10;99.90;;;;;;5073870;28;20108;-79
2021/03/13 11:47:31;;;;;;;10.00;1.90;;;5.80;99.90;;;;;;5087896;28;20172;-80
2021/03/13 11:49:57;;;;;;;8.43;1.80;;;5.80;99.90;;;;;;5072875;28;20456;-80
2021/03/13 11:52:23;;;;;;;9.60;1.17;;;6.50;99.90;;;;;;5079445;28;20491;-80
2021/03/13 11:54:49;;;;;;;9.85;1.23;;;7.30;99.90;;;;;;5076034;28;20039;-80
2021/03/13 11:57:16;;;;;;;11.60;1.77;;;8.00;99.90;;;;;;5067616;28;20110;-79
2021/03/13 11:59:45;;;;;;;8.02;1.80;;;8.50;99.90;;;;;;5075311;28;20013;-80
2021/03/13 12:02:11;;;;;;;10.82;1.83;;;9.10;98.50;;;;;;5076240;28;20021;-81
2021/03/13 12:04:40;;;;;;;11.27;2.17;;;9.40;96.00;;;;;;5079796;28;20012;-80
2021/03/13 12:07:06;;;;;;;10.80;1.83;;;9.40;95.10;;;;;;5079880;28;20044;-81
2021/03/13 12:09:33;;;;;;;16.50;3.05;;;8.80;95.00;;;;;;5077079;28;20395;-80
2021/03/13 12:12:00;;;;;;;11.25;1.85;;;8.40;96.60;;;;;;5082639;28;20486;-80
2021/03/13 12:14:29;;;;;;;9.13;1.40;;;7.80;98.00;;;;;;5079724;28;20024;-80
2021/03/13 12:16:54;;;;;;;10.20;2.03;;;7.70;99.50;;;;;;5071958;28;20052;-80
2021/03/13 12:19:20;;;;;;;12.18;2.38;;;7.90;99.70;;;;;;5074153;28;20070;-82
2021/03/13 12:21:47;;;;;;;15.13;3.15;;;8.50;99.90;;;;;;5082561;28;20015;-81
2021/03/13 12:24:13;;;;;;;13.88;1.85;;;9.00;98.50;;;;;;5077440;28;20024;-81
2021/03/13 12:26:38;;;;;;;11.00;2.00;;;9.50;96.40;;;;;;5077602;28;20099;-81
2021/03/13 12:29:05;;;;;;;12.27;1.85;;;9.90;96.20;;;;;;5076562;28;20100;-80
2021/03/13 12:31:30;;;;;;;16.88;2.20;;;10.30;95.90;;;;;;5071053;28;20017;-81
2021/03/13 12:33:56;;;;;;;12.32;2.58;;;10.10;93.60;;;;;;5075989;28;20020;-81
2021/03/13 12:36:22;;;;;;;13.30;2.17;;;10.00;94.60;;;;;;5076467;28;20054;-81
2021/03/13 12:38:48;;;;;;;13.13;2.13;;;10.10;93.70;;;;;;5080995;28;20457;-81
2021/03/13 12:41:13;;;;;;;15.25;2.67;;;10.40;92.20;;;;;;5058964;28;20074;-81
2021/03/13 12:43:39;;;;;;;11.63;1.90;;;10.60;91.90;;;;;;5071587;28;20028;-82
2021/03/13 12:46:05;;;;;;;10.52;1.92;;;10.90;90.60;;;;;;5088504;28;20020;-81
2021/03/13 12:48:31;;;;;;;10.65;1.55;;;11.30;90.20;;;;;;5065818;28;20033;-82
2021/03/13 12:50:57;;;;;;;9.98;1.67;;;11.50;82.00;;;;;;5058167;28;20472;-82
2021/03/13 12:53:23;;;;;;;6.00;1.02;;;11.50;78.30;;;;;;5077660;28;20028;-82
2021/03/13 12:55:49;;;;;;;10.52;2.97;;;11.40;80.70;;;;;;5074970;28;20024;-82
2021/03/13 12:58:14;;;;;;;8.38;1.30;;;11.00;78.40;;;;;;5064398;28;20075;-82
2021/03/13 13:00:41;;;;;;;9.43;1.20;;;10.90;80.50;;;;;;5072718;28;20012;-82